createdAt,value
2022-09-15T00:00:00.473Z,25.57
2022-09-15T00:02:27.124Z,25.70
2022-09-15T00:04:53.787Z,25.80
2022-09-15T00:07:20.695Z,26.70
2022-09-15T00:09:47.259Z,26.13
2022-09-15T00:12:13.804Z,26.27
2022-09-15T00:14:40.402Z,25.93
2022-09-15T00:17:06.987Z,27.40
2022-09-15T00:19:33.608Z,28.53
2022-09-15T00:22:00.125Z,31.10
2022-09-15T00:24:26.824Z,30.20
2022-09-15T00:26:53.371Z,30.70
2022-09-15T00:29:20.139Z,29.50
2022-09-15T00:31:46.680Z,32.77
2022-09-15T00:34:14.028Z,32.97
2022-09-15T00:36:41.007Z,33.90
2022-09-15T00:39:08.057Z,33.73
2022-09-15T00:41:34.902Z,34.90
2022-09-15T00:44:16.574Z,35.57
2022-09-15T00:46:54.810Z,34.63
2022-09-15T00:49:35.628Z,36.17
2022-09-15T00:52:07.319Z,35.67
2022-09-15T00:54:50.009Z,35.73
2022-09-15T00:57:26.898Z,35.73
2022-09-15T00:59:56.981Z,35.37
2022-09-15T01:02:29.463Z,36.87
2022-09-15T01:04:58.550Z,37.00
2022-09-15T01:07:35.446Z,35.70
2022-09-15T01:10:08.097Z,36.83
2022-09-15T01:12:35.110Z,37.53
2022-09-15T01:15:01.912Z,39.97
2022-09-15T01:17:39.728Z,38.90
2022-09-15T01:20:09.294Z,38.13
2022-09-15T01:23:11.476Z,40.77
2022-09-15T01:26:05.218Z,39.77
2022-09-15T01:28:44.741Z,39.07
2022-09-15T01:31:21.505Z,41.00
2022-09-15T01:34:11.401Z,39.70
2022-09-15T01:36:42.117Z,39.63
2022-09-15T01:39:25.621Z,40.87
2022-09-15T01:42:06.138Z,40.37
2022-09-15T01:44:37.645Z,40.30
2022-09-15T01:47:08.389Z,41.57
2022-09-15T01:50:04.786Z,42.17
2022-09-15T01:52:33.366Z,41.80
2022-09-15T01:55:05.932Z,42.47
2022-09-15T01:57:33.240Z,42.03
2022-09-15T02:00:00.427Z,40.60
2022-09-15T02:02:30.930Z,43.53
2022-09-15T02:05:16.775Z,43.13
2022-09-15T02:08:12.222Z,45.33
2022-09-15T02:10:46.580Z,44.70
2022-09-15T02:13:45.661Z,45.37
2022-09-15T02:16:19.921Z,46.83
2022-09-15T02:19:10.091Z,46.97
2022-09-15T02:22:10.564Z,47.93
2022-09-15T02:24:41.903Z,43.27
2022-09-15T02:27:13.336Z,44.43
2022-09-15T02:29:42.096Z,46.87
2022-09-15T02:32:09.775Z,47.73
2022-09-15T02:34:41.806Z,47.37
2022-09-15T02:37:10.129Z,47.50
2022-09-15T02:39:42.624Z,46.90
2022-09-15T02:42:10.461Z,45.10
2022-09-15T02:44:37.519Z,45.93
2022-09-15T02:47:04.404Z,45.13
2022-09-15T02:49:30.950Z,45.10
2022-09-15T02:51:57.529Z,43.23
2022-09-15T02:54:24.265Z,43.27
2022-09-15T02:56:50.804Z,42.60
2022-09-15T02:59:17.366Z,42.30
2022-09-15T03:01:44.792Z,43.33
2022-09-15T03:04:11.451Z,45.33
2022-09-15T03:06:38.021Z,46.47
2022-09-15T03:09:07.972Z,46.83
2022-09-15T03:11:35.563Z,47.03
2022-09-15T03:14:06.472Z,47.43
2022-09-15T03:16:35.052Z,46.47
2022-09-15T03:19:01.938Z,43.53
2022-09-15T03:21:29.549Z,45.77
2022-09-15T03:23:59.194Z,45.07
2022-09-15T03:26:25.986Z,45.40
2022-09-15T03:28:52.915Z,42.83
2022-09-15T03:31:19.944Z,45.07
2022-09-15T03:33:47.283Z,42.90
2022-09-15T03:36:14.194Z,42.43
2022-09-15T03:38:40.786Z,40.97
2022-09-15T03:41:11.206Z,41.70
2022-09-15T03:43:38.579Z,41.30
2022-09-15T03:46:06.610Z,43.10
2022-09-15T03:48:35.187Z,39.00
2022-09-15T03:51:02.651Z,41.17
2022-09-15T03:53:32.699Z,39.87
2022-09-15T03:56:19.330Z,39.37
2022-09-15T03:58:45.874Z,38.77
2022-09-15T04:01:12.606Z,39.50
2022-09-15T04:03:44.354Z,38.67
2022-09-15T04:06:15.046Z,39.17
2022-09-15T04:08:42.110Z,37.23
2022-09-15T04:11:10.545Z,39.03
2022-09-15T04:13:38.937Z,38.20
2022-09-15T04:16:08.284Z,37.20
2022-09-15T04:18:35.290Z,39.10
2022-09-15T04:21:05.528Z,36.87
2022-09-15T04:23:32.469Z,38.80
2022-09-15T04:26:01.490Z,38.80
2022-09-15T04:28:29.546Z,39.20
2022-09-15T04:31:10.508Z,37.80
2022-09-15T04:33:38.201Z,39.70
2022-09-15T04:36:07.962Z,39.90
2022-09-15T04:38:35.774Z,40.37
2022-09-15T04:41:03.909Z,39.70
2022-09-15T04:43:30.929Z,42.37
2022-09-15T04:45:57.926Z,41.17
2022-09-15T04:48:25.248Z,42.13
2022-09-15T04:50:52.460Z,39.07
2022-09-15T04:53:19.087Z,42.43
2022-09-15T04:55:45.753Z,41.10
2022-09-15T04:58:12.339Z,38.57
2022-09-15T05:00:44.213Z,41.43
2022-09-15T05:03:12.826Z,42.03
2022-09-15T05:05:40.245Z,40.90
2022-09-15T05:08:08.046Z,43.33
2022-09-15T05:10:35.059Z,42.73
2022-09-15T05:13:01.626Z,42.60
2022-09-15T05:15:28.246Z,41.83
2022-09-15T05:17:54.819Z,41.83
2022-09-15T05:20:21.490Z,44.27
2022-09-15T05:22:48.087Z,43.37
2022-09-15T05:25:14.872Z,43.03
2022-09-15T05:27:41.621Z,42.60
2022-09-15T05:30:37.605Z,41.57
2022-09-15T05:32:56.140Z,43.30
2022-09-15T05:35:23.503Z,42.87
2022-09-15T05:37:50.302Z,44.73
2022-09-15T05:40:17.173Z,42.87
2022-09-15T05:42:43.789Z,43.60
2022-09-15T05:45:10.774Z,44.87
2022-09-15T05:47:37.298Z,46.23
2022-09-15T05:50:03.974Z,45.40
2022-09-15T05:52:30.506Z,45.13
2022-09-15T05:54:59.147Z,45.87
2022-09-15T05:57:25.997Z,44.07
2022-09-15T05:59:52.554Z,42.33
2022-09-15T06:02:19.437Z,44.63
2022-09-15T06:04:46.027Z,48.00
2022-09-15T06:07:13.050Z,43.97
2022-09-15T06:09:39.808Z,45.13
2022-09-15T06:12:06.527Z,45.03
2022-09-15T06:14:33.094Z,47.73
2022-09-15T06:16:59.632Z,47.07
2022-09-15T06:19:26.167Z,49.10
2022-09-15T06:21:54.069Z,48.87
2022-09-15T06:24:21.960Z,50.00
2022-09-15T06:26:48.518Z,46.73
2022-09-15T06:29:15.145Z,50.53
2022-09-15T06:31:41.818Z,52.63
2022-09-15T06:34:09.810Z,50.73
2022-09-15T06:36:37.653Z,51.50
2022-09-15T06:39:04.654Z,49.60
2022-09-15T06:41:52.523Z,52.77
2022-09-15T06:44:21.369Z,54.10
2022-09-15T06:46:48.711Z,54.17
2022-09-15T06:49:15.833Z,52.43
2022-09-15T06:51:42.406Z,53.53
2022-09-15T06:54:09.043Z,53.43
2022-09-15T06:56:38.094Z,53.90
2022-09-15T06:59:05.681Z,53.37
2022-09-15T07:01:33.155Z,54.43
2022-09-15T07:04:01.106Z,52.60
2022-09-15T07:06:29.138Z,53.43
2022-09-15T07:08:56.642Z,51.70
2022-09-15T07:11:23.328Z,50.87
2022-09-15T07:13:50.715Z,47.07
2022-09-15T07:16:19.169Z,45.67
2022-09-15T07:18:47.278Z,43.47
2022-09-15T07:21:16.238Z,43.67
2022-09-15T07:23:43.623Z,43.90
2022-09-15T07:26:21.588Z,38.60
2022-09-15T07:28:50.766Z,39.37
2022-09-15T07:31:20.885Z,40.03
2022-09-15T07:33:48.206Z,33.13
2022-09-15T07:36:15.242Z,34.87
2022-09-15T07:38:45.162Z,35.63
2022-09-15T07:41:23.518Z,32.03
2022-09-15T07:43:52.146Z,29.80
2022-09-15T07:46:20.241Z,29.83
2022-09-15T07:48:48.855Z,28.83
2022-09-15T07:51:16.495Z,24.47
2022-09-15T07:53:44.858Z,23.80
2022-09-15T07:56:11.657Z,22.57
2022-09-15T07:58:38.203Z,21.87
2022-09-15T08:01:07.494Z,20.53
2022-09-15T08:03:34.362Z,19.20
2022-09-15T08:06:02.795Z,19.20
2022-09-15T08:08:30.124Z,17.03
2022-09-15T08:10:56.965Z,17.70
2022-09-15T08:13:24.271Z,16.77
2022-09-15T08:15:51.123Z,17.27
2022-09-15T08:18:17.751Z,14.93
2022-09-15T08:20:44.327Z,16.60
2022-09-15T08:23:11.241Z,16.33
2022-09-15T08:25:40.814Z,15.03
2022-09-15T08:28:07.465Z,17.03
2022-09-15T08:30:34.237Z,14.80
2022-09-15T08:33:00.867Z,15.40
2022-09-15T08:35:29.229Z,14.77
2022-09-15T08:37:55.804Z,13.97
2022-09-15T08:40:26.656Z,13.20
2022-09-15T08:42:57.665Z,13.27
2022-09-15T08:45:35.490Z,13.10
2022-09-15T08:48:04.794Z,12.77
2022-09-15T08:50:45.589Z,10.97
2022-09-15T08:53:23.665Z,12.03
2022-09-15T08:55:53.322Z,11.33
2022-09-15T08:58:31.648Z,11.27
2022-09-15T09:01:19.179Z,11.73
2022-09-15T09:04:25.988Z,10.13
2022-09-15T09:07:07.545Z,8.83
2022-09-15T09:09:45.635Z,8.20
2022-09-15T09:12:29.186Z,7.07
2022-09-15T09:14:55.787Z,8.93
2022-09-15T09:17:42.200Z,9.20
2022-09-15T09:20:32.013Z,9.93
2022-09-15T09:23:01.722Z,8.83
2022-09-15T09:25:28.653Z,7.60
2022-09-15T09:27:58.174Z,7.87
2022-09-15T09:30:27.557Z,6.50
2022-09-15T09:33:16.622Z,6.93
2022-09-15T09:35:49.312Z,5.50
2022-09-15T09:38:24.825Z,5.87
2022-09-15T09:40:51.834Z,6.77
2022-09-15T09:43:19.061Z,7.33
2022-09-15T09:45:48.771Z,6.47
2022-09-15T09:48:20.344Z,6.33
2022-09-15T09:50:49.518Z,6.97
2022-09-15T09:53:36.471Z,6.33
2022-09-15T09:56:12.371Z,6.27
2022-09-15T09:58:39.016Z,5.70
2022-09-15T10:01:14.536Z,5.07
2022-09-15T10:03:43.184Z,4.83
2022-09-15T10:06:14.462Z,5.40
2022-09-15T10:09:04.312Z,5.07
2022-09-15T10:11:46.108Z,3.73
2022-09-15T10:14:29.163Z,4.17
2022-09-15T10:17:05.732Z,3.90
2022-09-15T10:19:43.425Z,3.87
2022-09-15T10:22:20.277Z,2.70
2022-09-15T10:24:46.895Z,2.90
2022-09-15T10:27:34.731Z,3.47
2022-09-15T10:30:13.678Z,4.00
2022-09-15T10:32:41.567Z,1.60
2022-09-15T10:35:14.082Z,2.97
2022-09-15T10:37:55.998Z,2.53
2022-09-15T10:40:30.806Z,3.90
2022-09-15T10:43:11.853Z,2.95
2022-09-15T10:45:40.233Z,2.50
2022-09-15T10:48:20.238Z,3.10
2022-09-15T10:51:02.554Z,2.47
2022-09-15T10:53:40.708Z,1.63
2022-09-15T10:56:27.440Z,2.13
2022-09-15T10:59:20.307Z,1.50
2022-09-15T11:02:17.606Z,3.08
2022-09-15T11:04:57.046Z,3.50
2022-09-15T11:07:50.087Z,3.07
2022-09-15T11:10:28.797Z,2.53
2022-09-15T11:13:20.240Z,1.70
2022-09-15T11:16:11.853Z,2.13
2022-09-15T11:19:06.648Z,2.00
2022-09-15T11:21:42.892Z,2.63
2022-09-15T11:24:47.895Z,2.30
2022-09-15T11:27:25.854Z,1.60
2022-09-15T11:29:59.353Z,1.70
2022-09-15T11:32:38.845Z,1.83
2022-09-15T11:35:29.722Z,2.25
2022-09-15T11:38:04.614Z,1.30
2022-09-15T11:40:41.915Z,1.48
2022-09-15T11:43:32.866Z,1.25
2022-09-15T11:46:01.958Z,1.25
2022-09-15T11:48:40.086Z,1.13
2022-09-15T11:51:07.127Z,1.05
2022-09-15T11:53:48.826Z,1.30
2022-09-15T11:56:22.556Z,1.08
2022-09-15T11:59:03.870Z,1.20
2022-09-15T12:01:48.653Z,0.90
2022-09-15T12:04:40.565Z,1.53
2022-09-15T12:07:18.777Z,1.17
2022-09-15T12:09:45.595Z,1.10
2022-09-15T12:12:18.626Z,1.73
2022-09-15T12:14:47.575Z,1.08
2022-09-15T12:17:29.559Z,1.30
2022-09-15T12:20:22.740Z,1.15
2022-09-15T12:22:59.127Z,1.00
2022-09-15T12:25:43.538Z,1.38
2022-09-15T12:28:22.373Z,1.00
2022-09-15T12:31:10.716Z,1.20
2022-09-15T12:33:43.372Z,1.10
2022-09-15T12:36:32.160Z,1.37
2022-09-15T12:39:00.406Z,1.13
2022-09-15T12:41:28.167Z,1.87
2022-09-15T12:43:57.834Z,1.50
2022-09-15T12:46:25.527Z,1.47
2022-09-15T12:49:02.989Z,1.90
2022-09-15T12:51:30.502Z,1.30
2022-09-15T12:54:04.421Z,1.60
2022-09-15T12:56:33.577Z,1.53
2022-09-15T12:59:06.814Z,1.20
2022-09-15T13:01:53.491Z,1.43
2022-09-15T13:04:50.878Z,1.27
2022-09-15T13:07:18.404Z,1.20
2022-09-15T13:10:18.981Z,1.37
2022-09-15T13:12:55.024Z,1.27
2022-09-15T13:15:25.158Z,1.70
2022-09-15T13:17:52.486Z,1.40
2022-09-15T13:20:26.006Z,1.77
2022-09-15T13:22:56.373Z,1.90
2022-09-15T13:25:28.091Z,2.10
2022-09-15T13:28:02.831Z,2.03
2022-09-15T13:30:49.416Z,1.80
2022-09-15T13:40:27.350Z,1.60
2022-09-15T13:43:04.838Z,1.93
2022-09-15T13:45:59.172Z,1.80
2022-09-15T13:48:36.947Z,1.60
2022-09-15T13:51:18.541Z,1.70
2022-09-15T13:54:03.193Z,1.97
2022-09-15T13:56:35.463Z,1.83
2022-09-15T13:59:11.771Z,1.73
2022-09-15T14:01:42.379Z,1.60
2022-09-15T14:04:14.154Z,1.50
2022-09-15T14:06:49.897Z,1.60
2022-09-15T14:09:21.384Z,1.57
2022-09-15T14:11:50.323Z,1.80
2022-09-15T14:14:46.806Z,1.60
2022-09-15T14:17:21.458Z,1.03
2022-09-15T14:19:50.595Z,1.53
2022-09-15T14:22:35.982Z,0.97
2022-09-15T14:25:13.814Z,1.53
2022-09-15T14:27:45.594Z,1.10
2022-09-15T14:30:19.414Z,1.10
2022-09-15T14:32:49.083Z,0.73
2022-09-15T14:35:19.902Z,1.10
2022-09-15T14:37:56.469Z,0.83
2022-09-15T14:40:35.397Z,1.20
2022-09-15T14:43:03.028Z,0.83
2022-09-15T14:48:30.625Z,1.10
2022-09-15T14:51:12.893Z,0.90
2022-09-15T14:53:41.287Z,0.70
2022-09-15T14:56:14.508Z,1.10
2022-09-15T14:58:54.247Z,0.80
2022-09-15T15:01:37.619Z,0.77
2022-09-15T15:04:24.352Z,1.00
2022-09-15T15:07:07.705Z,1.00
2022-09-15T15:09:37.569Z,1.07
2022-09-15T15:12:30.436Z,1.67
2022-09-15T15:14:57.938Z,1.40
2022-09-15T15:17:32.342Z,0.93
2022-09-15T15:20:08.360Z,0.77
2022-09-15T15:22:39.353Z,0.93
2022-09-15T15:25:21.142Z,1.30
2022-09-15T15:27:56.485Z,0.70
2022-09-15T15:30:31.937Z,0.90
2022-09-15T15:33:04.684Z,0.90
2022-09-15T15:35:33.014Z,0.80
2022-09-15T15:38:04.522Z,0.80
2022-09-15T15:40:31.778Z,1.10
2022-09-15T15:43:04.775Z,0.90
2022-09-15T15:45:33.928Z,0.90
2022-09-15T15:48:04.341Z,0.87
2022-09-15T15:50:32.614Z,1.47
2022-09-15T15:53:00.709Z,0.90
2022-09-15T15:55:41.478Z,0.97
2022-09-15T15:58:10.602Z,1.10
2022-09-15T16:00:54.669Z,1.00
2022-09-15T16:03:22.052Z,1.33
2022-09-15T16:05:51.294Z,1.20
2022-09-15T16:08:23.970Z,1.10
2022-09-15T16:10:52.569Z,1.10
2022-09-15T16:13:20.693Z,1.13
2022-09-15T16:15:47.417Z,1.33
2022-09-15T16:18:14.325Z,1.10
2022-09-15T16:20:41.518Z,0.83
2022-09-15T16:23:13.779Z,1.00
2022-09-15T16:26:05.426Z,1.30
2022-09-15T16:28:31.980Z,1.27
2022-09-15T16:30:59.217Z,1.10
2022-09-15T16:33:26.509Z,1.10
2022-09-15T16:36:06.648Z,1.17
2022-09-15T16:38:34.631Z,0.90
2022-09-15T16:41:06.351Z,1.40
2022-09-15T16:43:33.327Z,1.20
2022-09-15T16:45:59.967Z,1.00
2022-09-15T16:48:27.176Z,1.10
2022-09-15T16:51:20.463Z,1.10
2022-09-15T16:53:40.717Z,1.20
2022-09-15T16:56:10.259Z,1.20
2022-09-15T16:58:37.195Z,1.80
2022-09-15T17:01:04.051Z,1.57
2022-09-15T17:03:31.043Z,1.50
2022-09-15T17:05:59.611Z,1.80
2022-09-15T17:08:29.309Z,1.40
2022-09-15T17:10:57.684Z,1.20
2022-09-15T17:13:27.855Z,1.63
2022-09-15T17:15:57.438Z,1.50
2022-09-15T17:18:24.291Z,1.60
2022-09-15T17:20:51.243Z,1.67
2022-09-15T17:23:34.278Z,1.17
2022-09-15T17:26:04.628Z,1.30
2022-09-15T17:28:33.272Z,1.50
2022-09-15T17:31:04.811Z,1.00
2022-09-15T17:33:32.468Z,1.30
2022-09-15T17:35:59.960Z,0.83
2022-09-15T17:38:26.761Z,1.20
2022-09-15T17:40:57.007Z,0.80
2022-09-15T17:43:26.903Z,0.80
2022-09-15T17:45:54.010Z,0.97
2022-09-15T17:48:22.034Z,1.00
2022-09-15T17:50:49.109Z,0.90
2022-09-15T17:53:24.266Z,1.00
2022-09-15T17:55:51.188Z,0.87
2022-09-15T17:58:18.407Z,0.87
2022-09-15T18:00:47.082Z,1.40
2022-09-15T18:03:22.858Z,1.10
2022-09-15T18:05:50.188Z,1.00
2022-09-15T18:08:17.098Z,1.10
2022-09-15T18:10:44.354Z,0.97
2022-09-15T18:13:18.124Z,1.17
2022-09-15T18:15:44.724Z,0.80
2022-09-15T18:18:19.840Z,1.00
2022-09-15T18:20:48.172Z,1.00
2022-09-15T18:23:19.669Z,1.00
2022-09-15T18:25:47.290Z,1.10
2022-09-15T18:28:15.103Z,1.30
2022-09-15T18:30:44.244Z,1.30
2022-09-15T18:33:22.819Z,1.03
2022-09-15T18:35:52.060Z,1.13
2022-09-15T18:38:19.074Z,1.67
2022-09-15T18:40:48.960Z,1.17
2022-09-15T18:43:16.382Z,1.10
2022-09-15T18:45:43.205Z,1.10
2022-09-15T18:48:12.725Z,1.13
2022-09-15T18:50:41.470Z,0.90
2022-09-15T18:53:08.185Z,1.20
2022-09-15T18:55:34.859Z,1.20
2022-09-15T18:58:01.522Z,0.90
2022-09-15T19:00:29.355Z,1.23
2022-09-15T19:02:58.137Z,1.40
2022-09-15T19:05:25.326Z,1.20
2022-09-15T19:07:52.144Z,1.13
2022-09-15T19:10:18.770Z,1.20
2022-09-15T19:12:45.351Z,1.47
2022-09-15T19:15:13.115Z,1.63
2022-09-15T19:17:40.476Z,1.20
2022-09-15T19:20:08.849Z,1.47
2022-09-15T19:22:36.071Z,1.43
2022-09-15T19:25:04.255Z,1.53
2022-09-15T19:27:30.822Z,1.30
2022-09-15T19:29:57.453Z,1.17
2022-09-15T19:32:24.457Z,1.47
2022-09-15T19:34:50.989Z,1.60
2022-09-15T19:37:20.062Z,1.43
2022-09-15T19:39:48.298Z,1.67
2022-09-15T19:44:47.750Z,1.90
2022-09-15T19:47:14.395Z,1.40
2022-09-15T19:49:41.043Z,1.30
2022-09-15T19:52:07.702Z,1.80
2022-09-15T19:54:34.728Z,1.83
2022-09-15T19:57:01.680Z,1.50
2022-09-15T19:59:31.736Z,1.53
2022-09-15T20:02:00.466Z,1.50
2022-09-15T20:04:28.111Z,1.60
2022-09-15T20:06:54.725Z,1.43
2022-09-15T20:09:21.497Z,1.43
2022-09-15T20:11:48.056Z,1.70
2022-09-15T20:14:15.212Z,1.80
2022-09-15T20:16:41.864Z,2.07
2022-09-15T20:19:08.520Z,1.77
2022-09-15T20:21:52.490Z,1.50
2022-09-15T20:24:20.310Z,1.57
2022-09-15T20:26:47.398Z,1.63
2022-09-15T20:29:14.241Z,1.73
2022-09-15T20:31:41.438Z,1.90
2022-09-15T20:34:08.233Z,1.57
2022-09-15T20:36:38.643Z,1.70
2022-09-15T20:39:09.211Z,1.57
2022-09-15T20:41:36.044Z,1.57
2022-09-15T20:44:03.127Z,1.70
2022-09-15T20:46:31.165Z,1.60
2022-09-15T20:48:57.895Z,1.80
2022-09-15T20:51:31.502Z,1.70
2022-09-15T20:54:00.104Z,1.70
2022-09-15T20:56:29.231Z,1.87
2022-09-15T20:58:58.319Z,2.20
2022-09-15T21:01:31.757Z,1.23
2022-09-15T21:03:58.518Z,2.90
2022-09-15T21:06:26.964Z,2.13
2022-09-15T21:08:55.681Z,1.97
2022-09-15T21:11:23.924Z,2.13
2022-09-15T21:13:50.502Z,2.20
2022-09-15T21:16:20.379Z,2.17
2022-09-15T21:18:48.031Z,1.87
2022-09-15T21:21:26.187Z,2.50
2022-09-15T21:23:55.406Z,1.60
2022-09-15T21:26:24.603Z,1.70
2022-09-15T21:28:51.788Z,1.73
2022-09-15T21:31:20.812Z,1.63
2022-09-15T21:33:48.011Z,1.97
2022-09-15T21:36:22.380Z,1.80
2022-09-15T21:38:50.930Z,1.50
2022-09-15T21:41:21.349Z,1.70
2022-09-15T21:43:48.832Z,1.50
2022-09-15T21:46:18.933Z,1.70
2022-09-15T21:48:47.188Z,1.60
2022-09-15T21:51:15.442Z,1.60
2022-09-15T21:53:42.878Z,1.97
2022-09-15T21:56:11.405Z,1.70
2022-09-15T21:58:42.843Z,1.73
2022-09-15T22:01:12.805Z,1.77
2022-09-15T22:03:43.109Z,1.80
2022-09-15T22:06:11.458Z,1.80
2022-09-15T22:08:39.084Z,1.60
2022-09-15T22:11:07.066Z,1.60
2022-09-15T22:13:39.671Z,2.20
2022-09-15T22:16:10.268Z,1.90
2022-09-15T22:18:38.335Z,1.83
2022-09-15T22:21:07.538Z,1.90
2022-09-15T22:23:34.901Z,2.47
2022-09-15T22:26:13.263Z,2.30
2022-09-15T22:28:40.364Z,2.13
2022-09-15T22:31:10.711Z,2.20
2022-09-15T22:33:38.427Z,2.80
2022-09-15T22:36:06.400Z,2.60
2022-09-15T22:38:33.064Z,2.87
2022-09-15T22:41:09.012Z,2.57
2022-09-15T22:43:36.885Z,1.93
2022-09-15T22:46:04.078Z,2.23
2022-09-15T22:48:30.842Z,2.20
2022-09-15T22:50:57.891Z,2.00
2022-09-15T22:53:25.259Z,1.73
2022-09-15T22:55:53.279Z,2.43
2022-09-15T22:58:19.975Z,2.50
2022-09-15T23:00:46.710Z,2.00
2022-09-15T23:03:13.404Z,2.00
2022-09-15T23:05:39.996Z,2.40
2022-09-15T23:08:06.808Z,2.37
2022-09-15T23:10:33.348Z,2.17
2022-09-15T23:13:00.426Z,2.20
2022-09-15T23:15:27.899Z,1.67
2022-09-15T23:17:54.447Z,2.20
2022-09-15T23:20:21.539Z,2.10
2022-09-15T23:22:48.342Z,2.33
2022-09-15T23:25:15.004Z,2.23
2022-09-15T23:27:41.552Z,2.40
2022-09-15T23:30:08.858Z,2.03
2022-09-15T23:32:35.453Z,2.70
2022-09-15T23:35:01.991Z,3.53
2022-09-15T23:37:28.720Z,2.93
2022-09-15T23:39:55.332Z,2.73
2022-09-15T23:42:21.899Z,2.77
2022-09-15T23:44:48.502Z,2.50
2022-09-15T23:47:15.037Z,2.60
2022-09-15T23:49:41.594Z,3.27
2022-09-15T23:52:08.145Z,2.70
2022-09-15T23:54:34.685Z,2.80
2022-09-15T23:57:01.255Z,2.93
2022-09-15T23:59:27.795Z,2.80
